Aviation Digital Data Service (ADDS)

Output produced by METARs form (0058 UTC 20 April 2019)
found at http://www.aviationweather.gov/metar/data/
 
METAR text: EGPF 200050Z AUTO 26002KT 9999 NCD 09/06 Q1031
Conditions at: EGPF (GLASGOW AIRPORT , GB) observed 0050 UTC 20 April 2019
Temperature: 9.0°C (48°F)
Dewpoint: 6.0°C (43°F) [RH = 81%]
Pressure (altimeter): 30.44 inches Hg (1031.0 mb)
Winds: from the W (260 degrees) at 2 MPH (2 knots; 1.0 m/s)
Visibility: 6 or more miles (10+ km)
Ceiling: at least 12,000 feet AGL
Clouds: sky clear below 12,000 feet AGL
Weather: no significant weather observed at this time

METAR text: EGPF 200020Z AUTO 23003KT 9999 NCD 08/06 Q1031
Conditions at: EGPF (GLASGOW AIRPORT , GB) observed 0020 UTC 20 April 2019
Temperature: 8.0°C (46°F)
Dewpoint: 6.0°C (43°F) [RH = 87%]
Pressure (altimeter): 30.44 inches Hg (1031.0 mb)
Winds: from the SW (230 degrees) at 3 MPH (3 knots; 1.5 m/s)
Visibility: 6 or more miles (10+ km)
Ceiling: at least 12,000 feet AGL
Clouds: sky clear below 12,000 feet AGL
Weather: no significant weather observed at this time

METAR text: EGPF 192350Z AUTO VRB01KT 9999 NCD 09/07 Q1031
Conditions at: EGPF (GLASGOW AIRPORT , GB) observed 2350 UTC 19 April 2019
Temperature: 9.0°C (48°F)
Dewpoint: 7.0°C (45°F) [RH = 87%]
Pressure (altimeter): 30.44 inches Hg (1031.0 mb)
Winds: variable direction winds at 1 MPH (1 knots; 0.5 m/s)
Visibility: 6 or more miles (10+ km)
Ceiling: at least 12,000 feet AGL
Clouds: sky clear below 12,000 feet AGL
Weather: no significant weather observed at this time

METAR text: EGPF 192320Z AUTO 27001KT 9999 NCD 10/07 Q1031
Conditions at: EGPF (GLASGOW AIRPORT , GB) observed 2320 UTC 19 April 2019
Temperature: 10.0°C (50°F)
Dewpoint: 7.0°C (45°F) [RH = 82%]
Pressure (altimeter): 30.44 inches Hg (1031.0 mb)
Winds: from the W (270 degrees) at 1 MPH (1 knots; 0.5 m/s)
Visibility: 6 or more miles (10+ km)
Ceiling: at least 12,000 feet AGL
Clouds: sky clear below 12,000 feet AGL
Weather: no significant weather observed at this time

METAR text: EGPF 192250Z AUTO 30003KT 9999 NCD 11/08 Q1031
Conditions at: EGPF (GLASGOW AIRPORT , GB) observed 2250 UTC 19 April 2019
Temperature: 11.0°C (52°F)
Dewpoint: 8.0°C (46°F) [RH = 82%]
Pressure (altimeter): 30.44 inches Hg (1031.0 mb)
Winds: from the WNW (300 degrees) at 3 MPH (3 knots; 1.5 m/s)
Visibility: 6 or more miles (10+ km)
Ceiling: at least 12,000 feet AGL
Clouds: sky clear below 12,000 feet AGL
Weather: no significant weather observed at this time

METAR text: EGPF 192220Z AUTO 34001KT 9999 NCD 12/08 Q1031
Conditions at: EGPF (GLASGOW AIRPORT , GB) observed 2220 UTC 19 April 2019
Temperature: 12.0°C (54°F)
Dewpoint: 8.0°C (46°F) [RH = 76%]
Pressure (altimeter): 30.44 inches Hg (1031.0 mb)
Winds: from the NNW (340 degrees) at 1 MPH (1 knots; 0.5 m/s)
Visibility: 6 or more miles (10+ km)
Ceiling: at least 12,000 feet AGL
Clouds: sky clear below 12,000 feet AGL
Weather: no significant weather observed at this time

METAR text: EGPF 192150Z AUTO VRB02KT 9999 NCD 13/07 Q1031
Conditions at: EGPF (GLASGOW AIRPORT , GB) observed 2150 UTC 19 April 2019
Temperature: 13.0°C (55°F)
Dewpoint: 7.0°C (45°F) [RH = 67%]
Pressure (altimeter): 30.44 inches Hg (1031.0 mb)
Winds: variable direction winds at 2 MPH (2 knots; 1.0 m/s)
Visibility: 6 or more miles (10+ km)
Ceiling: at least 12,000 feet AGL
Clouds: sky clear below 12,000 feet AGL
Weather: no significant weather observed at this time

METAR text: EGPF 192120Z AUTO 13001KT 9999 NCD 12/07 Q1031
Conditions at: EGPF (GLASGOW AIRPORT , GB) observed 2120 UTC 19 April 2019
Temperature: 12.0°C (54°F)
Dewpoint: 7.0°C (45°F) [RH = 71%]
Pressure (altimeter): 30.44 inches Hg (1031.0 mb)
Winds: from the SE (130 degrees) at 1 MPH (1 knots; 0.5 m/s)
Visibility: 6 or more miles (10+ km)
Ceiling: at least 12,000 feet AGL
Clouds: sky clear below 12,000 feet AGL
Weather: no significant weather observed at this time

METAR text: EGPF 192050Z AUTO VRB01KT 9999 NCD 13/06 Q1031
Conditions at: EGPF (GLASGOW AIRPORT , GB) observed 2050 UTC 19 April 2019
Temperature: 13.0°C (55°F)
Dewpoint: 6.0°C (43°F) [RH = 62%]
Pressure (altimeter): 30.44 inches Hg (1031.0 mb)
Winds: variable direction winds at 1 MPH (1 knots; 0.5 m/s)
Visibility: 6 or more miles (10+ km)
Ceiling: at least 12,000 feet AGL
Clouds: sky clear below 12,000 feet AGL
Weather: no significant weather observed at this time

METAR text: EGPF 192020Z AUTO 29003KT 9999 NCD 13/07 Q1031
Conditions at: EGPF (GLASGOW AIRPORT , GB) observed 2020 UTC 19 April 2019
Temperature: 13.0°C (55°F)
Dewpoint: 7.0°C (45°F) [RH = 67%]
Pressure (altimeter): 30.44 inches Hg (1031.0 mb)
Winds: from the WNW (290 degrees) at 3 MPH (3 knots; 1.5 m/s)
Visibility: 6 or more miles (10+ km)
Ceiling: at least 12,000 feet AGL
Clouds: sky clear below 12,000 feet AGL
Weather: no significant weather observed at this time

METAR text: EGPF 191950Z AUTO 28004KT 9999 NCD 14/07 Q1030
Conditions at: EGPF (GLASGOW AIRPORT , GB) observed 1950 UTC 19 April 2019
Temperature: 14.0°C (57°F)
Dewpoint: 7.0°C (45°F) [RH = 63%]
Pressure (altimeter): 30.41 inches Hg (1030.0 mb)
Winds: from the W (280 degrees) at 5 MPH (4 knots; 2.1 m/s)
Visibility: 6 or more miles (10+ km)
Ceiling: at least 12,000 feet AGL
Clouds: sky clear below 12,000 feet AGL
Weather: no significant weather observed at this time

METAR text: EGPF 191920Z AUTO 31003KT 9999 NCD 15/08 Q1030
Conditions at: EGPF (GLASGOW AIRPORT , GB) observed 1920 UTC 19 April 2019
Temperature: 15.0°C (59°F)
Dewpoint: 8.0°C (46°F) [RH = 63%]
Pressure (altimeter): 30.41 inches Hg (1030.0 mb)
Winds: from the NW (310 degrees) at 3 MPH (3 knots; 1.5 m/s)
Visibility: 6 or more miles (10+ km)
Ceiling: at least 12,000 feet AGL
Clouds: sky clear below 12,000 feet AGL
Weather: no significant weather observed at this time

METAR text: EGPF 191850Z AUTO 22005KT 9999 NCD 15/08 Q1030
Conditions at: EGPF (GLASGOW AIRPORT , GB) observed 1850 UTC 19 April 2019
Temperature: 15.0°C (59°F)
Dewpoint: 8.0°C (46°F) [RH = 63%]
Pressure (altimeter): 30.41 inches Hg (1030.0 mb)
Winds: from the SW (220 degrees) at 6 MPH (5 knots; 2.6 m/s)
Visibility: 6 or more miles (10+ km)
Ceiling: at least 12,000 feet AGL
Clouds: sky clear below 12,000 feet AGL
Weather: no significant weather observed at this time

METAR text: EGPF 191820Z AUTO 25003KT 9999 NCD 16/07 Q1030
Conditions at: EGPF (GLASGOW AIRPORT , GB) observed 1820 UTC 19 April 2019
Temperature: 16.0°C (61°F)
Dewpoint: 7.0°C (45°F) [RH = 55%]
Pressure (altimeter): 30.41 inches Hg (1030.0 mb)
Winds: from the WSW (250 degrees) at 3 MPH (3 knots; 1.5 m/s)
Visibility: 6 or more miles (10+ km)
Ceiling: at least 12,000 feet AGL
Clouds: sky clear below 12,000 feet AGL
Weather: no significant weather observed at this time

METAR text: EGPF 191750Z AUTO 24005KT 9999 NCD 17/07 Q1030
Conditions at: EGPF (GLASGOW AIRPORT , GB) observed 1750 UTC 19 April 2019
Temperature: 17.0°C (63°F)
Dewpoint: 7.0°C (45°F) [RH = 52%]
Pressure (altimeter): 30.41 inches Hg (1030.0 mb)
Winds: from the WSW (240 degrees) at 6 MPH (5 knots; 2.6 m/s)
Visibility: 6 or more miles (10+ km)
Ceiling: at least 12,000 feet AGL
Clouds: sky clear below 12,000 feet AGL
Weather: no significant weather observed at this time

METAR text: EGPF 191720Z AUTO 25005KT 9999 NCD 18/07 Q1030
Conditions at: EGPF (GLASGOW AIRPORT , GB) observed 1720 UTC 19 April 2019
Temperature: 18.0°C (64°F)
Dewpoint: 7.0°C (45°F) [RH = 49%]
Pressure (altimeter): 30.41 inches Hg (1030.0 mb)
Winds: from the WSW (250 degrees) at 6 MPH (5 knots; 2.6 m/s)
Visibility: 6 or more miles (10+ km)
Ceiling: at least 12,000 feet AGL
Clouds: sky clear below 12,000 feet AGL
Weather: no significant weather observed at this time

METAR text: EGPF 191650Z AUTO 24006KT 200V270 9999 NCD 20/07 Q1029
Conditions at: EGPF (GLASGOW AIRPORT , GB) observed 1650 UTC 19 April 2019
Temperature: 20.0°C (68°F)
Dewpoint: 7.0°C (45°F) [RH = 43%]
Pressure (altimeter): 30.38 inches Hg (1029.0 mb)
Winds: from the WSW (240 degrees) at 7 MPH (6 knots; 3.1 m/s)
Visibility: 6 or more miles (10+ km)
Ceiling: at least 12,000 feet AGL
Clouds: sky clear below 12,000 feet AGL
Weather: no significant weather observed at this time

METAR text: EGPF 191620Z AUTO 22009KT 9999 NCD 21/06 Q1029
Conditions at: EGPF (GLASGOW AIRPORT , GB) observed 1620 UTC 19 April 2019
Temperature: 21.0°C (70°F)
Dewpoint: 6.0°C (43°F) [RH = 38%]
Pressure (altimeter): 30.38 inches Hg (1029.0 mb)
Winds: from the SW (220 degrees) at 10 MPH (9 knots; 4.6 m/s)
Visibility: 6 or more miles (10+ km)
Ceiling: at least 12,000 feet AGL
Clouds: sky clear below 12,000 feet AGL
Weather: no significant weather observed at this time

METAR text: EGPF 191550Z AUTO 21010KT 9999 NCD 21/05 Q1029
Conditions at: EGPF (GLASGOW AIRPORT , GB) observed 1550 UTC 19 April 2019
Temperature: 21.0°C (70°F)
Dewpoint: 5.0°C (41°F) [RH = 35%]
Pressure (altimeter): 30.38 inches Hg (1029.0 mb)
Winds: from the SSW (210 degrees) at 12 MPH (10 knots; 5.1 m/s)
Visibility: 6 or more miles (10+ km)
Ceiling: at least 12,000 feet AGL
Clouds: sky clear below 12,000 feet AGL
Weather: no significant weather observed at this time

METAR text: EGPF 191520Z AUTO 25010KT 9999 NCD 21/06 Q1029
Conditions at: EGPF (GLASGOW AIRPORT , GB) observed 1520 UTC 19 April 2019
Temperature: 21.0°C (70°F)
Dewpoint: 6.0°C (43°F) [RH = 38%]
Pressure (altimeter): 30.38 inches Hg (1029.0 mb)
Winds: from the WSW (250 degrees) at 12 MPH (10 knots; 5.1 m/s)
Visibility: 6 or more miles (10+ km)
Ceiling: at least 12,000 feet AGL
Clouds: sky clear below 12,000 feet AGL
Weather: no significant weather observed at this time

METAR text: EGPF 191450Z AUTO 22007KT 9999 NCD 22/07 Q1029
Conditions at: EGPF (GLASGOW AIRPORT , GB) observed 1450 UTC 19 April 2019
Temperature: 22.0°C (72°F)
Dewpoint: 7.0°C (45°F) [RH = 38%]
Pressure (altimeter): 30.38 inches Hg (1029.0 mb)
Winds: from the SW (220 degrees) at 8 MPH (7 knots; 3.6 m/s)
Visibility: 6 or more miles (10+ km)
Ceiling: at least 12,000 feet AGL
Clouds: sky clear below 12,000 feet AGL
Weather: no significant weather observed at this time

METAR text: EGPF 191420Z AUTO 18008KT 140V220 9999 NCD 21/04 Q1030
Conditions at: EGPF (GLASGOW AIRPORT , GB) observed 1420 UTC 19 April 2019
Temperature: 21.0°C (70°F)
Dewpoint: 4.0°C (39°F) [RH = 33%]
Pressure (altimeter): 30.41 inches Hg (1030.0 mb)
Winds: from the S (180 degrees) at 9 MPH (8 knots; 4.1 m/s)
Visibility: 6 or more miles (10+ km)
Ceiling: at least 12,000 feet AGL
Clouds: sky clear below 12,000 feet AGL
Weather: no significant weather observed at this time

METAR text: EGPF 191350Z AUTO 21009KT 9999 NCD 21/05 Q1030
Conditions at: EGPF (GLASGOW AIRPORT , GB) observed 1350 UTC 19 April 2019
Temperature: 21.0°C (70°F)
Dewpoint: 5.0°C (41°F) [RH = 35%]
Pressure (altimeter): 30.41 inches Hg (1030.0 mb)
Winds: from the SSW (210 degrees) at 10 MPH (9 knots; 4.6 m/s)
Visibility: 6 or more miles (10+ km)
Ceiling: at least 12,000 feet AGL
Clouds: sky clear below 12,000 feet AGL
Weather: no significant weather observed at this time

METAR text: EGPF 191320Z AUTO 06004KT 360V140 9999 NCD 20/09 Q1030
Conditions at: EGPF (GLASGOW AIRPORT , GB) observed 1320 UTC 19 April 2019
Temperature: 20.0°C (68°F)
Dewpoint: 9.0°C (48°F) [RH = 49%]
Pressure (altimeter): 30.41 inches Hg (1030.0 mb)
Winds: from the ENE (60 degrees) at 5 MPH (4 knots; 2.1 m/s)
Visibility: 6 or more miles (10+ km)
Ceiling: at least 12,000 feet AGL
Clouds: sky clear below 12,000 feet AGL
Weather: no significant weather observed at this time

METAR text: EGPF 191250Z AUTO VRB03KT 9999 NCD 19/09 Q1030
Conditions at: EGPF (GLASGOW AIRPORT , GB) observed 1250 UTC 19 April 2019
Temperature: 19.0°C (66°F)
Dewpoint: 9.0°C (48°F) [RH = 52%]
Pressure (altimeter): 30.41 inches Hg (1030.0 mb)
Winds: variable direction winds at 3 MPH (3 knots; 1.5 m/s)
Visibility: 6 or more miles (10+ km)
Ceiling: at least 12,000 feet AGL
Clouds: sky clear below 12,000 feet AGL
Weather: no significant weather observed at this time

METAR text: EGPF 191220Z AUTO 03005KT 360V060 9999 NCD 18/09 Q1030
Conditions at: EGPF (GLASGOW AIRPORT , GB) observed 1220 UTC 19 April 2019
Temperature: 18.0°C (64°F)
Dewpoint: 9.0°C (48°F) [RH = 56%]
Pressure (altimeter): 30.41 inches Hg (1030.0 mb)
Winds: from the NNE (30 degrees) at 6 MPH (5 knots; 2.6 m/s)
Visibility: 6 or more miles (10+ km)
Ceiling: at least 12,000 feet AGL
Clouds: sky clear below 12,000 feet AGL
Weather: no significant weather observed at this time

METAR text: EGPF 191150Z AUTO 04005KT 360V110 9999 NCD 17/09 Q1030
Conditions at: EGPF (GLASGOW AIRPORT , GB) observed 1150 UTC 19 April 2019
Temperature: 17.0°C (63°F)
Dewpoint: 9.0°C (48°F) [RH = 59%]
Pressure (altimeter): 30.41 inches Hg (1030.0 mb)
Winds: from the NE (40 degrees) at 6 MPH (5 knots; 2.6 m/s)
Visibility: 6 or more miles (10+ km)
Ceiling: at least 12,000 feet AGL
Clouds: sky clear below 12,000 feet AGL
Weather: no significant weather observed at this time

METAR text: EGPF 191120Z AUTO 06006KT 020V080 9999 NCD 16/08 Q1030
Conditions at: EGPF (GLASGOW AIRPORT , GB) observed 1120 UTC 19 April 2019
Temperature: 16.0°C (61°F)
Dewpoint: 8.0°C (46°F) [RH = 59%]
Pressure (altimeter): 30.41 inches Hg (1030.0 mb)
Winds: from the ENE (60 degrees) at 7 MPH (6 knots; 3.1 m/s)
Visibility: 6 or more miles (10+ km)
Ceiling: at least 12,000 feet AGL
Clouds: sky clear below 12,000 feet AGL
Weather: no significant weather observed at this time

METAR text: EGPF 191050Z AUTO 07005KT 340V140 9999 NCD 16/08 Q1031
Conditions at: EGPF (GLASGOW AIRPORT , GB) observed 1050 UTC 19 April 2019
Temperature: 16.0°C (61°F)
Dewpoint: 8.0°C (46°F) [RH = 59%]
Pressure (altimeter): 30.44 inches Hg (1031.0 mb)
Winds: from the ENE (70 degrees) at 6 MPH (5 knots; 2.6 m/s)
Visibility: 6 or more miles (10+ km)
Ceiling: at least 12,000 feet AGL
Clouds: sky clear below 12,000 feet AGL
Weather: no significant weather observed at this time

METAR text: EGPF 191020Z AUTO 08006KT 050V110 9999 NCD 15/07 Q1031
Conditions at: EGPF (GLASGOW AIRPORT , GB) observed 1020 UTC 19 April 2019
Temperature: 15.0°C (59°F)
Dewpoint: 7.0°C (45°F) [RH = 59%]
Pressure (altimeter): 30.44 inches Hg (1031.0 mb)
Winds: from the E (80 degrees) at 7 MPH (6 knots; 3.1 m/s)
Visibility: 6 or more miles (10+ km)
Ceiling: at least 12,000 feet AGL
Clouds: sky clear below 12,000 feet AGL
Weather: no significant weather observed at this time

METAR text: EGPF 190950Z AUTO 06006KT 030V110 9999 NCD 13/07 Q1031
Conditions at: EGPF (GLASGOW AIRPORT , GB) observed 0950 UTC 19 April 2019
Temperature: 13.0°C (55°F)
Dewpoint: 7.0°C (45°F) [RH = 67%]
Pressure (altimeter): 30.44 inches Hg (1031.0 mb)
Winds: from the ENE (60 degrees) at 7 MPH (6 knots; 3.1 m/s)
Visibility: 6 or more miles (10+ km)
Ceiling: at least 12,000 feet AGL
Clouds: sky clear below 12,000 feet AGL
Weather: no significant weather observed at this time

METAR text: EGPF 190920Z AUTO 08007KT 9999 NCD 13/07 Q1031
Conditions at: EGPF (GLASGOW AIRPORT , GB) observed 0920 UTC 19 April 2019
Temperature: 13.0°C (55°F)
Dewpoint: 7.0°C (45°F) [RH = 67%]
Pressure (altimeter): 30.44 inches Hg (1031.0 mb)
Winds: from the E (80 degrees) at 8 MPH (7 knots; 3.6 m/s)
Visibility: 6 or more miles (10+ km)
Ceiling: at least 12,000 feet AGL
Clouds: sky clear below 12,000 feet AGL
Weather: no significant weather observed at this time

METAR text: EGPF 190850Z AUTO 08006KT 050V130 9999 NCD 12/07 Q1031
Conditions at: EGPF (GLASGOW AIRPORT , GB) observed 0850 UTC 19 April 2019
Temperature: 12.0°C (54°F)
Dewpoint: 7.0°C (45°F) [RH = 71%]
Pressure (altimeter): 30.44 inches Hg (1031.0 mb)
Winds: from the E (80 degrees) at 7 MPH (6 knots; 3.1 m/s)
Visibility: 6 or more miles (10+ km)
Ceiling: at least 12,000 feet AGL
Clouds: sky clear below 12,000 feet AGL
Weather: no significant weather observed at this time

METAR text: EGPF 190820Z AUTO 08004KT 020V120 9999 NCD 10/07 Q1031
Conditions at: EGPF (GLASGOW AIRPORT , GB) observed 0820 UTC 19 April 2019
Temperature: 10.0°C (50°F)
Dewpoint: 7.0°C (45°F) [RH = 82%]
Pressure (altimeter): 30.44 inches Hg (1031.0 mb)
Winds: from the E (80 degrees) at 5 MPH (4 knots; 2.1 m/s)
Visibility: 6 or more miles (10+ km)
Ceiling: at least 12,000 feet AGL
Clouds: sky clear below 12,000 feet AGL
Weather: no significant weather observed at this time

METAR text: EGPF 190750Z AUTO VRB01KT 9000 NCD 09/06 Q1031
Conditions at: EGPF (GLASGOW AIRPORT , GB) observed 0750 UTC 19 April 2019
Temperature: 9.0°C (48°F)
Dewpoint: 6.0°C (43°F) [RH = 81%]
Pressure (altimeter): 30.44 inches Hg (1031.0 mb)
Winds: variable direction winds at 1 MPH (1 knots; 0.5 m/s)
Visibility: 6 miles ( 9 km)
Ceiling: at least 12,000 feet AGL
Clouds: sky clear below 12,000 feet AGL
Weather: no significant weather observed at this time

METAR text: EGPF 190720Z AUTO VRB02KT 7000 NCD 07/06 Q1031
Conditions at: EGPF (GLASGOW AIRPORT , GB) observed 0720 UTC 19 April 2019
Temperature: 7.0°C (45°F)
Dewpoint: 6.0°C (43°F) [RH = 93%]
Pressure (altimeter): 30.44 inches Hg (1031.0 mb)
Winds: variable direction winds at 2 MPH (2 knots; 1.0 m/s)
Visibility: 4 miles ( 7 km)
Ceiling: at least 12,000 feet AGL
Clouds: sky clear below 12,000 feet AGL
Weather: no significant weather observed at this time

METAR text: EGPF 190650Z AUTO 27003KT 6000 NCD 06/05 Q1031
Conditions at: EGPF (GLASGOW AIRPORT , GB) observed 0650 UTC 19 April 2019
Temperature: 6.0°C (43°F)
Dewpoint: 5.0°C (41°F) [RH = 93%]
Pressure (altimeter): 30.44 inches Hg (1031.0 mb)
Winds: from the W (270 degrees) at 3 MPH (3 knots; 1.5 m/s)
Visibility: 4 miles ( 6 km)
Ceiling: at least 12,000 feet AGL
Clouds: sky clear below 12,000 feet AGL
Weather: no significant weather observed at this time

METAR text: EGPF 190620Z VRB02KT 5000 BR NSC 04/04 Q1031
Conditions at: EGPF (GLASGOW AIRPORT , GB) observed 0620 UTC 19 April 2019
Temperature: 4.0°C (39°F)
Dewpoint: 4.0°C (39°F) [RH = 100%]
Pressure (altimeter): 30.44 inches Hg (1031.0 mb)
Winds: variable direction winds at 2 MPH (2 knots; 1.0 m/s)
Visibility: 3 miles ( 5 km)
Ceiling: at least 12,000 feet AGL
Clouds: sky clear below 12,000 feet AGL
Weather: BR  (mist)

METAR text: EGPF 190550Z AUTO VRB01KT 4900 BR NCD 05/05 Q1031
Conditions at: EGPF (GLASGOW AIRPORT , GB) observed 0550 UTC 19 April 2019
Temperature: 5.0°C (41°F)
Dewpoint: 5.0°C (41°F) [RH = 100%]
Pressure (altimeter): 30.44 inches Hg (1031.0 mb)
Winds: variable direction winds at 1 MPH (1 knots; 0.5 m/s)
Visibility: 3 miles ( 5 km)
Ceiling: at least 12,000 feet AGL
Clouds: sky clear below 12,000 feet AGL
Weather: BR  (mist)

METAR text: EGPF 190520Z AUTO 33002KT 5000 HZ NCD 05/04 Q1030
Conditions at: EGPF (GLASGOW AIRPORT , GB) observed 0520 UTC 19 April 2019
Temperature: 5.0°C (41°F)
Dewpoint: 4.0°C (39°F) [RH = 93%]
Pressure (altimeter): 30.41 inches Hg (1030.0 mb)
Winds: from the NNW (330 degrees) at 2 MPH (2 knots; 1.0 m/s)
Visibility: 3 miles ( 5 km)
Ceiling: at least 12,000 feet AGL
Clouds: sky clear below 12,000 feet AGL
Weather: HZ  (haze)

METAR text: EGPF 190450Z AUTO 33002KT 6000 NCD 06/05 Q1030
Conditions at: EGPF (GLASGOW AIRPORT , GB) observed 0450 UTC 19 April 2019
Temperature: 6.0°C (43°F)
Dewpoint: 5.0°C (41°F) [RH = 93%]
Pressure (altimeter): 30.41 inches Hg (1030.0 mb)
Winds: from the NNW (330 degrees) at 2 MPH (2 knots; 1.0 m/s)
Visibility: 4 miles ( 6 km)
Ceiling: at least 12,000 feet AGL
Clouds: sky clear below 12,000 feet AGL
Weather: no significant weather observed at this time

METAR text: EGPF 190420Z AUTO VRB02KT 7000 NCD 06/05 Q1030
Conditions at: EGPF (GLASGOW AIRPORT , GB) observed 0420 UTC 19 April 2019
Temperature: 6.0°C (43°F)
Dewpoint: 5.0°C (41°F) [RH = 93%]
Pressure (altimeter): 30.41 inches Hg (1030.0 mb)
Winds: variable direction winds at 2 MPH (2 knots; 1.0 m/s)
Visibility: 4 miles ( 7 km)
Ceiling: at least 12,000 feet AGL
Clouds: sky clear below 12,000 feet AGL
Weather: no significant weather observed at this time

METAR text: EGPF 190350Z AUTO VRB03KT 8000 NCD 06/05 Q1030
Conditions at: EGPF (GLASGOW AIRPORT , GB) observed 0350 UTC 19 April 2019
Temperature: 6.0°C (43°F)
Dewpoint: 5.0°C (41°F) [RH = 93%]
Pressure (altimeter): 30.41 inches Hg (1030.0 mb)
Winds: variable direction winds at 3 MPH (3 knots; 1.5 m/s)
Visibility: 5 miles ( 8 km)
Ceiling: at least 12,000 feet AGL
Clouds: sky clear below 12,000 feet AGL
Weather: no significant weather observed at this time

METAR text: EGPF 190320Z AUTO 05003KT 9000 NCD 06/05 Q1030
Conditions at: EGPF (GLASGOW AIRPORT , GB) observed 0320 UTC 19 April 2019
Temperature: 6.0°C (43°F)
Dewpoint: 5.0°C (41°F) [RH = 93%]
Pressure (altimeter): 30.41 inches Hg (1030.0 mb)
Winds: from the NE (50 degrees) at 3 MPH (3 knots; 1.5 m/s)
Visibility: 6 miles ( 9 km)
Ceiling: at least 12,000 feet AGL
Clouds: sky clear below 12,000 feet AGL
Weather: no significant weather observed at this time

METAR text: EGPF 190250Z AUTO 07006KT 9999 NCD 07/05 Q1030
Conditions at: EGPF (GLASGOW AIRPORT , GB) observed 0250 UTC 19 April 2019
Temperature: 7.0°C (45°F)
Dewpoint: 5.0°C (41°F) [RH = 87%]
Pressure (altimeter): 30.41 inches Hg (1030.0 mb)
Winds: from the ENE (70 degrees) at 7 MPH (6 knots; 3.1 m/s)
Visibility: 6 or more miles (10+ km)
Ceiling: at least 12,000 feet AGL
Clouds: sky clear below 12,000 feet AGL
Weather: no significant weather observed at this time

METAR text: EGPF 190220Z AUTO 08008KT 9000 NCD 08/06 Q1030
Conditions at: EGPF (GLASGOW AIRPORT , GB) observed 0220 UTC 19 April 2019
Temperature: 8.0°C (46°F)
Dewpoint: 6.0°C (43°F) [RH = 87%]
Pressure (altimeter): 30.41 inches Hg (1030.0 mb)
Winds: from the E (80 degrees) at 9 MPH (8 knots; 4.1 m/s)
Visibility: 6 miles ( 9 km)
Ceiling: at least 12,000 feet AGL
Clouds: sky clear below 12,000 feet AGL
Weather: no significant weather observed at this time

METAR text: EGPF 190150Z AUTO 07006KT 9999 NCD 08/06 Q1030
Conditions at: EGPF (GLASGOW AIRPORT , GB) observed 0150 UTC 19 April 2019
Temperature: 8.0°C (46°F)
Dewpoint: 6.0°C (43°F) [RH = 87%]
Pressure (altimeter): 30.41 inches Hg (1030.0 mb)
Winds: from the ENE (70 degrees) at 7 MPH (6 knots; 3.1 m/s)
Visibility: 6 or more miles (10+ km)
Ceiling: at least 12,000 feet AGL
Clouds: sky clear below 12,000 feet AGL
Weather: no significant weather observed at this time

METAR text: EGPF 190120Z AUTO 07009KT 9000 NCD 08/06 Q1030
Conditions at: EGPF (GLASGOW AIRPORT , GB) observed 0120 UTC 19 April 2019
Temperature: 8.0°C (46°F)
Dewpoint: 6.0°C (43°F) [RH = 87%]
Pressure (altimeter): 30.41 inches Hg (1030.0 mb)
Winds: from the ENE (70 degrees) at 10 MPH (9 knots; 4.6 m/s)
Visibility: 6 miles ( 9 km)
Ceiling: at least 12,000 feet AGL
Clouds: sky clear below 12,000 feet AGL
Weather: no significant weather observed at this time

METAR text: EGPF 190050Z AUTO 07005KT 9000 NCD 08/06 Q1030
Conditions at: EGPF (GLASGOW AIRPORT , GB) observed 0050 UTC 19 April 2019
Temperature: 8.0°C (46°F)
Dewpoint: 6.0°C (43°F) [RH = 87%]
Pressure (altimeter): 30.41 inches Hg (1030.0 mb)
Winds: from the ENE (70 degrees) at 6 MPH (5 knots; 2.6 m/s)
Visibility: 6 miles ( 9 km)
Ceiling: at least 12,000 feet AGL
Clouds: sky clear below 12,000 feet AGL
Weather: no significant weather observed at this time

METAR text: EGPF 190020Z AUTO 07006KT 9999 NCD 08/06 Q1030
Conditions at: EGPF (GLASGOW AIRPORT , GB) observed 0020 UTC 19 April 2019
Temperature: 8.0°C (46°F)
Dewpoint: 6.0°C (43°F) [RH = 87%]
Pressure (altimeter): 30.41 inches Hg (1030.0 mb)
Winds: from the ENE (70 degrees) at 7 MPH (6 knots; 3.1 m/s)
Visibility: 6 or more miles (10+ km)
Ceiling: at least 12,000 feet AGL
Clouds: sky clear below 12,000 feet AGL
Weather: no significant weather observed at this time

METAR text: EGPF 182350Z AUTO 08006KT 9999 NCD 09/06 Q1029
Conditions at: EGPF (GLASGOW AIRPORT , GB) observed 2350 UTC 18 April 2019
Temperature: 9.0°C (48°F)
Dewpoint: 6.0°C (43°F) [RH = 81%]
Pressure (altimeter): 30.38 inches Hg (1029.0 mb)
Winds: from the E (80 degrees) at 7 MPH (6 knots; 3.1 m/s)
Visibility: 6 or more miles (10+ km)
Ceiling: at least 12,000 feet AGL
Clouds: sky clear below 12,000 feet AGL
Weather: no significant weather observed at this time

METAR text: EGPF 182320Z AUTO 08011KT 9999 NCD 09/06 Q1029
Conditions at: EGPF (GLASGOW AIRPORT , GB) observed 2320 UTC 18 April 2019
Temperature: 9.0°C (48°F)
Dewpoint: 6.0°C (43°F) [RH = 81%]
Pressure (altimeter): 30.38 inches Hg (1029.0 mb)
Winds: from the E (80 degrees) at 13 MPH (11 knots; 5.7 m/s)
Visibility: 6 or more miles (10+ km)
Ceiling: at least 12,000 feet AGL
Clouds: sky clear below 12,000 feet AGL
Weather: no significant weather observed at this time

METAR text: EGPF 182250Z AUTO 08008KT 9999 NCD 09/06 Q1029
Conditions at: EGPF (GLASGOW AIRPORT , GB) observed 2250 UTC 18 April 2019
Temperature: 9.0°C (48°F)
Dewpoint: 6.0°C (43°F) [RH = 81%]
Pressure (altimeter): 30.38 inches Hg (1029.0 mb)
Winds: from the E (80 degrees) at 9 MPH (8 knots; 4.1 m/s)
Visibility: 6 or more miles (10+ km)
Ceiling: at least 12,000 feet AGL
Clouds: sky clear below 12,000 feet AGL
Weather: no significant weather observed at this time

METAR text: EGPF 182220Z AUTO 08007KT 9999 NCD 10/06 Q1029
Conditions at: EGPF (GLASGOW AIRPORT , GB) observed 2220 UTC 18 April 2019
Temperature: 10.0°C (50°F)
Dewpoint: 6.0°C (43°F) [RH = 76%]
Pressure (altimeter): 30.38 inches Hg (1029.0 mb)
Winds: from the E (80 degrees) at 8 MPH (7 knots; 3.6 m/s)
Visibility: 6 or more miles (10+ km)
Ceiling: at least 12,000 feet AGL
Clouds: sky clear below 12,000 feet AGL
Weather: no significant weather observed at this time

METAR text: EGPF 182150Z AUTO 09007KT 9999 NCD 10/06 Q1029
Conditions at: EGPF (GLASGOW AIRPORT , GB) observed 2150 UTC 18 April 2019
Temperature: 10.0°C (50°F)
Dewpoint: 6.0°C (43°F) [RH = 76%]
Pressure (altimeter): 30.38 inches Hg (1029.0 mb)
Winds: from the E (90 degrees) at 8 MPH (7 knots; 3.6 m/s)
Visibility: 6 or more miles (10+ km)
Ceiling: at least 12,000 feet AGL
Clouds: sky clear below 12,000 feet AGL
Weather: no significant weather observed at this time

METAR text: EGPF 182120Z AUTO 07007G18KT 020V120 9999 NCD 10/07 Q1028
Conditions at: EGPF (GLASGOW AIRPORT , GB) observed 2120 UTC 18 April 2019
Temperature: 10.0°C (50°F)
Dewpoint: 7.0°C (45°F) [RH = 82%]
Pressure (altimeter): 30.35 inches Hg (1028.0 mb)
Winds: from the ENE (70 degrees) at 8 MPH (7 knots; 3.6 m/s)
gusting to 21 MPH (18 knots; 9.3 m/s)
Visibility: 6 or more miles (10+ km)
Ceiling: at least 12,000 feet AGL
Clouds: sky clear below 12,000 feet AGL
Weather: no significant weather observed at this time

METAR text: EGPF 182050Z AUTO 08009KT 9999 NCD 11/07 Q1028
Conditions at: EGPF (GLASGOW AIRPORT , GB) observed 2050 UTC 18 April 2019
Temperature: 11.0°C (52°F)
Dewpoint: 7.0°C (45°F) [RH = 76%]
Pressure (altimeter): 30.35 inches Hg (1028.0 mb)
Winds: from the E (80 degrees) at 10 MPH (9 knots; 4.6 m/s)
Visibility: 6 or more miles (10+ km)
Ceiling: at least 12,000 feet AGL
Clouds: sky clear below 12,000 feet AGL
Weather: no significant weather observed at this time

METAR text: EGPF 182020Z AUTO 07008KT 9999 NCD 12/07 Q1028
Conditions at: EGPF (GLASGOW AIRPORT , GB) observed 2020 UTC 18 April 2019
Temperature: 12.0°C (54°F)
Dewpoint: 7.0°C (45°F) [RH = 71%]
Pressure (altimeter): 30.35 inches Hg (1028.0 mb)
Winds: from the ENE (70 degrees) at 9 MPH (8 knots; 4.1 m/s)
Visibility: 6 or more miles (10+ km)
Ceiling: at least 12,000 feet AGL
Clouds: sky clear below 12,000 feet AGL
Weather: no significant weather observed at this time

METAR text: EGPF 181950Z AUTO 07010KT 9999 NCD 12/07 Q1028
Conditions at: EGPF (GLASGOW AIRPORT , GB) observed 1950 UTC 18 April 2019
Temperature: 12.0°C (54°F)
Dewpoint: 7.0°C (45°F) [RH = 71%]
Pressure (altimeter): 30.35 inches Hg (1028.0 mb)
Winds: from the ENE (70 degrees) at 12 MPH (10 knots; 5.1 m/s)
Visibility: 6 or more miles (10+ km)
Ceiling: at least 12,000 feet AGL
Clouds: sky clear below 12,000 feet AGL
Weather: no significant weather observed at this time

METAR text: EGPF 181920Z AUTO 08006KT 9999 NCD 12/07 Q1028
Conditions at: EGPF (GLASGOW AIRPORT , GB) observed 1920 UTC 18 April 2019
Temperature: 12.0°C (54°F)
Dewpoint: 7.0°C (45°F) [RH = 71%]
Pressure (altimeter): 30.35 inches Hg (1028.0 mb)
Winds: from the E (80 degrees) at 7 MPH (6 knots; 3.1 m/s)
Visibility: 6 or more miles (10+ km)
Ceiling: at least 12,000 feet AGL
Clouds: sky clear below 12,000 feet AGL
Weather: no significant weather observed at this time

METAR text: EGPF 181850Z AUTO 07009KT 9999 NCD 13/08 Q1027
Conditions at: EGPF (GLASGOW AIRPORT , GB) observed 1850 UTC 18 April 2019
Temperature: 13.0°C (55°F)
Dewpoint: 8.0°C (46°F) [RH = 72%]
Pressure (altimeter): 30.32 inches Hg (1027.0 mb)
Winds: from the ENE (70 degrees) at 10 MPH (9 knots; 4.6 m/s)
Visibility: 6 or more miles (10+ km)
Ceiling: at least 12,000 feet AGL
Clouds: sky clear below 12,000 feet AGL
Weather: no significant weather observed at this time

METAR text: EGPF 181820Z AUTO 08010KT 9999 NCD 14/08 Q1027
Conditions at: EGPF (GLASGOW AIRPORT , GB) observed 1820 UTC 18 April 2019
Temperature: 14.0°C (57°F)
Dewpoint: 8.0°C (46°F) [RH = 67%]
Pressure (altimeter): 30.32 inches Hg (1027.0 mb)
Winds: from the E (80 degrees) at 12 MPH (10 knots; 5.1 m/s)
Visibility: 6 or more miles (10+ km)
Ceiling: at least 12,000 feet AGL
Clouds: sky clear below 12,000 feet AGL
Weather: no significant weather observed at this time

METAR text: EGPF 181750Z AUTO 08010KT 9999 NCD 14/08 Q1027
Conditions at: EGPF (GLASGOW AIRPORT , GB) observed 1750 UTC 18 April 2019
Temperature: 14.0°C (57°F)
Dewpoint: 8.0°C (46°F) [RH = 67%]
Pressure (altimeter): 30.32 inches Hg (1027.0 mb)
Winds: from the E (80 degrees) at 12 MPH (10 knots; 5.1 m/s)
Visibility: 6 or more miles (10+ km)
Ceiling: at least 12,000 feet AGL
Clouds: sky clear below 12,000 feet AGL
Weather: no significant weather observed at this time

METAR text: EGPF 181720Z AUTO 08007KT 9999 NCD 14/08 Q1027
Conditions at: EGPF (GLASGOW AIRPORT , GB) observed 1720 UTC 18 April 2019
Temperature: 14.0°C (57°F)
Dewpoint: 8.0°C (46°F) [RH = 67%]
Pressure (altimeter): 30.32 inches Hg (1027.0 mb)
Winds: from the E (80 degrees) at 8 MPH (7 knots; 3.6 m/s)
Visibility: 6 or more miles (10+ km)
Ceiling: at least 12,000 feet AGL
Clouds: sky clear below 12,000 feet AGL
Weather: no significant weather observed at this time

METAR text: EGPF 181650Z AUTO 07013KT 9999 NCD 15/08 Q1027
Conditions at: EGPF (GLASGOW AIRPORT , GB) observed 1650 UTC 18 April 2019
Temperature: 15.0°C (59°F)
Dewpoint: 8.0°C (46°F) [RH = 63%]
Pressure (altimeter): 30.32 inches Hg (1027.0 mb)
Winds: from the ENE (70 degrees) at 15 MPH (13 knots; 6.7 m/s)
Visibility: 6 or more miles (10+ km)
Ceiling: at least 12,000 feet AGL
Clouds: sky clear below 12,000 feet AGL
Weather: no significant weather observed at this time

METAR text: EGPF 181620Z AUTO 07013KT 9999 NCD 16/09 Q1027
Conditions at: EGPF (GLASGOW AIRPORT , GB) observed 1620 UTC 18 April 2019
Temperature: 16.0°C (61°F)
Dewpoint: 9.0°C (48°F) [RH = 63%]
Pressure (altimeter): 30.32 inches Hg (1027.0 mb)
Winds: from the ENE (70 degrees) at 15 MPH (13 knots; 6.7 m/s)
Visibility: 6 or more miles (10+ km)
Ceiling: at least 12,000 feet AGL
Clouds: sky clear below 12,000 feet AGL
Weather: no significant weather observed at this time

METAR text: EGPF 181550Z AUTO 06013KT 9999 NCD 16/09 Q1026
Conditions at: EGPF (GLASGOW AIRPORT , GB) observed 1550 UTC 18 April 2019
Temperature: 16.0°C (61°F)
Dewpoint: 9.0°C (48°F) [RH = 63%]
Pressure (altimeter): 30.30 inches Hg (1026.0 mb)
Winds: from the ENE (60 degrees) at 15 MPH (13 knots; 6.7 m/s)
Visibility: 6 or more miles (10+ km)
Ceiling: at least 12,000 feet AGL
Clouds: sky clear below 12,000 feet AGL
Weather: no significant weather observed at this time

METAR text: EGPF 181520Z AUTO 05015KT 9999 NCD 16/09 Q1026
Conditions at: EGPF (GLASGOW AIRPORT , GB) observed 1520 UTC 18 April 2019
Temperature: 16.0°C (61°F)
Dewpoint: 9.0°C (48°F) [RH = 63%]
Pressure (altimeter): 30.30 inches Hg (1026.0 mb)
Winds: from the NE (50 degrees) at 17 MPH (15 knots; 7.7 m/s)
Visibility: 6 or more miles (10+ km)
Ceiling: at least 12,000 feet AGL
Clouds: sky clear below 12,000 feet AGL
Weather: no significant weather observed at this time

METAR text: EGPF 181450Z AUTO 06015KT 9999 NCD 16/09 Q1026
Conditions at: EGPF (GLASGOW AIRPORT , GB) observed 1450 UTC 18 April 2019
Temperature: 16.0°C (61°F)
Dewpoint: 9.0°C (48°F) [RH = 63%]
Pressure (altimeter): 30.30 inches Hg (1026.0 mb)
Winds: from the ENE (60 degrees) at 17 MPH (15 knots; 7.7 m/s)
Visibility: 6 or more miles (10+ km)
Ceiling: at least 12,000 feet AGL
Clouds: sky clear below 12,000 feet AGL
Weather: no significant weather observed at this time

METAR text: EGPF 181420Z AUTO 08013KT 9999 BKN049 16/09 Q1026
Conditions at: EGPF (GLASGOW AIRPORT , GB) observed 1420 UTC 18 April 2019
Temperature: 16.0°C (61°F)
Dewpoint: 9.0°C (48°F) [RH = 63%]
Pressure (altimeter): 30.30 inches Hg (1026.0 mb)
Winds: from the E (80 degrees) at 15 MPH (13 knots; 6.7 m/s)
Visibility: 6 or more miles (10+ km)
Ceiling: 4900 feet AGL
Clouds: broken clouds at 4900 feet AGL
Weather: no significant weather observed at this time

METAR text: EGPF 181350Z AUTO 04010KT 9999 SCT049 17/09 Q1027
Conditions at: EGPF (GLASGOW AIRPORT , GB) observed 1350 UTC 18 April 2019
Temperature: 17.0°C (63°F)
Dewpoint: 9.0°C (48°F) [RH = 59%]
Pressure (altimeter): 30.32 inches Hg (1027.0 mb)
Winds: from the NE (40 degrees) at 12 MPH (10 knots; 5.1 m/s)
Visibility: 6 or more miles (10+ km)
Ceiling: at least 12,000 feet AGL
Clouds: scattered clouds at 4900 feet AGL
Weather: no significant weather observed at this time

METAR text: EGPF 181320Z AUTO 05013KT 9999 NCD 16/09 Q1027
Conditions at: EGPF (GLASGOW AIRPORT , GB) observed 1320 UTC 18 April 2019
Temperature: 16.0°C (61°F)
Dewpoint: 9.0°C (48°F) [RH = 63%]
Pressure (altimeter): 30.32 inches Hg (1027.0 mb)
Winds: from the NE (50 degrees) at 15 MPH (13 knots; 6.7 m/s)
Visibility: 6 or more miles (10+ km)
Ceiling: at least 12,000 feet AGL
Clouds: sky clear below 12,000 feet AGL
Weather: no significant weather observed at this time

Forecast for: EGPF (GLASGOW AIRPORT , GB)
Text: TAF EGPF 192255Z 2000/2024 VRB03KT CAVOK
Forecast period: 0000 to 0900 UTC 20 April 2019
Forecast type: FROM: standard forecast or significant change
Winds: variable direction winds at 3 MPH (3 knots; 1.5 m/s)
Visibility: 6 or more miles 10+ km)
Ceiling: unknown
Clouds: missing
Weather: NSW  (no significant weather)
Text: PROB40 2000/2009 7000
Forecast period: 0000 to 0900 UTC 20 April 2019
Forecast type: PROBABLE: 40 percent likelihood of the following during this time
Visibility: 4 miles (7 km)
Ceiling: unknown
Clouds: missing
Weather: no significant weather forecast for this period
Text: BECMG 2009/2012 24010KT
Forecast period: 0900 to 2100 UTC 20 April 2019
Forecast type: BECOMING: Conditions expected to become as follows by 1200 UTC 20 April 2019
Winds: from the WSW (240 degrees) at 12 MPH (10 knots; 5.1 m/s)
Visibility: 6 or more miles 10+ km)
Ceiling: unknown
Clouds: missing
Weather: NSW  (no significant weather)
Text: BECMG 2021/2024 VRB03KT
Forecast period: 2100 UTC 20 April 2019 to 0000 UTC 21 April 2019
Forecast type: BECOMING: Conditions expected to become as follows by 0000 UTC 21 April 2019
Winds: variable direction winds at 3 MPH (3 knots; 1.5 m/s)
Visibility: 6 or more miles 10+ km)
Ceiling: unknown
Clouds: missing
Weather: NSW  (no significant weather)
Text: PROB30 2021/2024 7000
Forecast period: 2100 UTC 20 April 2019 to 0000 UTC 21 April 2019
Forecast type: PROBABLE: 30 percent likelihood of the following during this time
Visibility: 4 miles (7 km)
Ceiling: unknown
Clouds: missing
Weather: no significant weather forecast for this period